sensor_id;sensor_type;location;lat;lon;timestamp;P1;durP1;ratioP1;P2;durP2;ratioP2
79066;SDS011;68470;50.224;14.348;2023-03-16T00:02:14;12.10;;;6.47;;
79066;SDS011;68470;50.224;14.348;2023-03-16T00:04:39;9.90;;;4.18;;
79066;SDS011;68470;50.224;14.348;2023-03-16T00:07:10;8.73;;;4.82;;
79066;SDS011;68470;50.224;14.348;2023-03-16T00:09:38;8.23;;;5.05;;
79066;SDS011;68470;50.224;14.348;2023-03-16T00:12:06;8.18;;;3.72;;
79066;SDS011;68470;50.224;14.348;2023-03-16T00:14:46;10.27;;;4.90;;
79066;SDS011;68470;50.224;14.348;2023-03-16T00:17:14;9.93;;;4.72;;
79066;SDS011;68470;50.224;14.348;2023-03-16T00:19:49;9.23;;;4.40;;
79066;SDS011;68470;50.224;14.348;2023-03-16T00:22:20;10.07;;;5.10;;
79066;SDS011;68470;50.224;14.348;2023-03-16T00:24:47;8.73;;;4.65;;
79066;SDS011;68470;50.224;14.348;2023-03-16T00:27:13;9.40;;;4.35;;
79066;SDS011;68470;50.224;14.348;2023-03-16T00:29:40;35.00;;;11.82;;
79066;SDS011;68470;50.224;14.348;2023-03-16T00:32:21;55.78;;;18.63;;
79066;SDS011;68470;50.224;14.348;2023-03-16T00:34:49;50.45;;;13.93;;
79066;SDS011;68470;50.224;14.348;2023-03-16T00:37:17;53.03;;;14.40;;
79066;SDS011;68470;50.224;14.348;2023-03-16T00:39:44;52.85;;;15.70;;
79066;SDS011;68470;50.224;14.348;2023-03-16T00:42:12;47.55;;;15.68;;
79066;SDS011;68470;50.224;14.348;2023-03-16T00:44:39;38.25;;;12.77;;
79066;SDS011;68470;50.224;14.348;2023-03-16T00:49:38;12.48;;;4.38;;
79066;SDS011;68470;50.224;14.348;2023-03-16T00:52:07;6.15;;;3.25;;
79066;SDS011;68470;50.224;14.348;2023-03-16T00:54:34;9.38;;;5.43;;
79066;SDS011;68470;50.224;14.348;2023-03-16T00:57:00;6.25;;;3.53;;
79066;SDS011;68470;50.224;14.348;2023-03-16T00:59:27;5.28;;;3.00;;
79066;SDS011;68470;50.224;14.348;2023-03-16T01:01:54;7.75;;;4.35;;
79066;SDS011;68470;50.224;14.348;2023-03-16T01:04:20;16.63;;;5.40;;
79066;SDS011;68470;50.224;14.348;2023-03-16T01:06:47;11.85;;;4.75;;
79066;SDS011;68470;50.224;14.348;2023-03-16T01:09:14;6.30;;;3.63;;
79066;SDS011;68470;50.224;14.348;2023-03-16T01:11:40;6.50;;;3.75;;
79066;SDS011;68470;50.224;14.348;2023-03-16T01:14:09;8.82;;;5.15;;
79066;SDS011;68470;50.224;14.348;2023-03-16T01:16:36;10.02;;;4.18;;
79066;SDS011;68470;50.224;14.348;2023-03-16T01:19:02;5.95;;;3.55;;
79066;SDS011;68470;50.224;14.348;2023-03-16T01:21:28;7.22;;;3.63;;
79066;SDS011;68470;50.224;14.348;2023-03-16T01:23:54;6.78;;;3.75;;
79066;SDS011;68470;50.224;14.348;2023-03-16T01:26:20;10.68;;;4.00;;
79066;SDS011;68470;50.224;14.348;2023-03-16T01:28:47;8.80;;;5.35;;
79066;SDS011;68470;50.224;14.348;2023-03-16T01:31:14;8.45;;;4.22;;
79066;SDS011;68470;50.224;14.348;2023-03-16T01:33:40;11.05;;;4.95;;
79066;SDS011;68470;50.224;14.348;2023-03-16T01:36:16;6.60;;;3.90;;
79066;SDS011;68470;50.224;14.348;2023-03-16T01:38:43;6.13;;;3.55;;
79066;SDS011;68470;50.224;14.348;2023-03-16T01:41:09;12.50;;;4.50;;
79066;SDS011;68470;50.224;14.348;2023-03-16T01:43:36;14.75;;;4.65;;
79066;SDS011;68470;50.224;14.348;2023-03-16T01:48:53;9.30;;;4.40;;
79066;SDS011;68470;50.224;14.348;2023-03-16T01:54:21;6.90;;;4.35;;
79066;SDS011;68470;50.224;14.348;2023-03-16T01:57:11;7.78;;;3.75;;
79066;SDS011;68470;50.224;14.348;2023-03-16T01:59:44;7.85;;;3.63;;
79066;SDS011;68470;50.224;14.348;2023-03-16T02:02:17;12.45;;;5.13;;
79066;SDS011;68470;50.224;14.348;2023-03-16T02:07:15;6.45;;;3.67;;
79066;SDS011;68470;50.224;14.348;2023-03-16T02:09:43;6.10;;;3.60;;
79066;SDS011;68470;50.224;14.348;2023-03-16T02:12:13;6.05;;;3.60;;
79066;SDS011;68470;50.224;14.348;2023-03-16T02:14:45;9.35;;;4.10;;
79066;SDS011;68470;50.224;14.348;2023-03-16T02:17:13;12.02;;;3.97;;
79066;SDS011;68470;50.224;14.348;2023-03-16T02:19:58;9.02;;;4.25;;
79066;SDS011;68470;50.224;14.348;2023-03-16T02:22:51;6.93;;;3.78;;
79066;SDS011;68470;50.224;14.348;2023-03-16T02:25:22;7.30;;;4.70;;
79066;SDS011;68470;50.224;14.348;2023-03-16T02:27:59;9.85;;;5.00;;
79066;SDS011;68470;50.224;14.348;2023-03-16T02:30:36;7.07;;;4.55;;
79066;SDS011;68470;50.224;14.348;2023-03-16T02:33:02;8.35;;;5.63;;
79066;SDS011;68470;50.224;14.348;2023-03-16T02:35:29;8.95;;;4.65;;
79066;SDS011;68470;50.224;14.348;2023-03-16T02:37:56;6.85;;;4.20;;
79066;SDS011;68470;50.224;14.348;2023-03-16T02:42:53;9.98;;;4.43;;
79066;SDS011;68470;50.224;14.348;2023-03-16T02:48:01;6.32;;;3.13;;
79066;SDS011;68470;50.224;14.348;2023-03-16T02:50:29;7.18;;;4.32;;
79066;SDS011;68470;50.224;14.348;2023-03-16T02:52:55;13.43;;;6.55;;
79066;SDS011;68470;50.224;14.348;2023-03-16T02:55:21;11.38;;;5.68;;
79066;SDS011;68470;50.224;14.348;2023-03-16T02:57:47;10.52;;;5.03;;
79066;SDS011;68470;50.224;14.348;2023-03-16T03:00:13;9.52;;;4.88;;
79066;SDS011;68470;50.224;14.348;2023-03-16T03:02:44;11.57;;;5.05;;
79066;SDS011;68470;50.224;14.348;2023-03-16T03:05:10;8.38;;;4.05;;
79066;SDS011;68470;50.224;14.348;2023-03-16T03:07:36;9.85;;;3.83;;
79066;SDS011;68470;50.224;14.348;2023-03-16T03:10:03;5.68;;;4.10;;
79066;SDS011;68470;50.224;14.348;2023-03-16T03:12:31;7.03;;;4.18;;
79066;SDS011;68470;50.224;14.348;2023-03-16T03:14:58;8.07;;;4.47;;
79066;SDS011;68470;50.224;14.348;2023-03-16T03:17:24;6.97;;;4.40;;
79066;SDS011;68470;50.224;14.348;2023-03-16T03:19:58;9.70;;;5.45;;
79066;SDS011;68470;50.224;14.348;2023-03-16T03:22:26;8.18;;;4.00;;
79066;SDS011;68470;50.224;14.348;2023-03-16T03:24:52;9.38;;;4.72;;
79066;SDS011;68470;50.224;14.348;2023-03-16T03:27:19;12.85;;;4.75;;
79066;SDS011;68470;50.224;14.348;2023-03-16T03:29:46;7.82;;;4.85;;
79066;SDS011;68470;50.224;14.348;2023-03-16T03:32:13;7.90;;;3.92;;
79066;SDS011;68470;50.224;14.348;2023-03-16T03:34:38;9.30;;;4.93;;
79066;SDS011;68470;50.224;14.348;2023-03-16T03:37:04;8.32;;;4.13;;
79066;SDS011;68470;50.224;14.348;2023-03-16T03:39:30;12.52;;;4.45;;
79066;SDS011;68470;50.224;14.348;2023-03-16T03:41:56;7.90;;;3.90;;
79066;SDS011;68470;50.224;14.348;2023-03-16T03:44:22;18.20;;;8.48;;
79066;SDS011;68470;50.224;14.348;2023-03-16T03:46:49;13.57;;;7.63;;
79066;SDS011;68470;50.224;14.348;2023-03-16T03:49:15;10.85;;;6.22;;
79066;SDS011;68470;50.224;14.348;2023-03-16T03:51:42;15.15;;;6.55;;
79066;SDS011;68470;50.224;14.348;2023-03-16T03:54:08;11.38;;;6.32;;
79066;SDS011;68470;50.224;14.348;2023-03-16T03:56:35;16.17;;;6.88;;
79066;SDS011;68470;50.224;14.348;2023-03-16T03:59:01;9.55;;;5.25;;
79066;SDS011;68470;50.224;14.348;2023-03-16T04:01:27;10.23;;;5.75;;
79066;SDS011;68470;50.224;14.348;2023-03-16T04:03:53;8.43;;;5.72;;
79066;SDS011;68470;50.224;14.348;2023-03-16T04:06:19;19.80;;;6.43;;
79066;SDS011;68470;50.224;14.348;2023-03-16T04:08:44;7.00;;;4.32;;
79066;SDS011;68470;50.224;14.348;2023-03-16T04:11:10;10.30;;;5.78;;
79066;SDS011;68470;50.224;14.348;2023-03-16T04:13:36;8.55;;;4.55;;
79066;SDS011;68470;50.224;14.348;2023-03-16T04:16:02;6.35;;;3.95;;
79066;SDS011;68470;50.224;14.348;2023-03-16T04:18:29;7.45;;;3.78;;
79066;SDS011;68470;50.224;14.348;2023-03-16T04:21:03;8.20;;;4.18;;
79066;SDS011;68470;50.224;14.348;2023-03-16T04:23:30;8.50;;;3.50;;
79066;SDS011;68470;50.224;14.348;2023-03-16T04:26:00;8.75;;;4.88;;
79066;SDS011;68470;50.224;14.348;2023-03-16T04:28:26;6.18;;;4.05;;
79066;SDS011;68470;50.224;14.348;2023-03-16T04:30:52;9.82;;;6.18;;
79066;SDS011;68470;50.224;14.348;2023-03-16T04:33:19;13.25;;;5.25;;
79066;SDS011;68470;50.224;14.348;2023-03-16T04:35:46;8.93;;;4.75;;
79066;SDS011;68470;50.224;14.348;2023-03-16T04:38:12;11.32;;;5.22;;
79066;SDS011;68470;50.224;14.348;2023-03-16T04:40:38;8.25;;;5.13;;
79066;SDS011;68470;50.224;14.348;2023-03-16T04:43:04;9.27;;;4.35;;
79066;SDS011;68470;50.224;14.348;2023-03-16T04:45:30;7.68;;;4.20;;
79066;SDS011;68470;50.224;14.348;2023-03-16T04:47:56;7.20;;;4.32;;
79066;SDS011;68470;50.224;14.348;2023-03-16T04:50:22;8.93;;;4.85;;
79066;SDS011;68470;50.224;14.348;2023-03-16T04:52:48;11.85;;;6.93;;
79066;SDS011;68470;50.224;14.348;2023-03-16T04:55:14;15.18;;;6.97;;
79066;SDS011;68470;50.224;14.348;2023-03-16T04:57:40;11.38;;;7.38;;
79066;SDS011;68470;50.224;14.348;2023-03-16T05:00:06;10.15;;;5.90;;
79066;SDS011;68470;50.224;14.348;2023-03-16T05:02:37;18.00;;;6.63;;
79066;SDS011;68470;50.224;14.348;2023-03-16T05:05:03;11.88;;;5.63;;
79066;SDS011;68470;50.224;14.348;2023-03-16T05:07:30;14.80;;;7.95;;
79066;SDS011;68470;50.224;14.348;2023-03-16T05:09:56;17.90;;;9.35;;
79066;SDS011;68470;50.224;14.348;2023-03-16T05:12:22;17.85;;;10.30;;
79066;SDS011;68470;50.224;14.348;2023-03-16T05:14:48;20.02;;;8.35;;
79066;SDS011;68470;50.224;14.348;2023-03-16T05:17:14;13.38;;;7.15;;
79066;SDS011;68470;50.224;14.348;2023-03-16T05:19:40;13.15;;;6.90;;
79066;SDS011;68470;50.224;14.348;2023-03-16T05:22:06;11.65;;;6.38;;
79066;SDS011;68470;50.224;14.348;2023-03-16T05:24:33;16.05;;;8.02;;
79066;SDS011;68470;50.224;14.348;2023-03-16T05:26:58;15.77;;;7.03;;
79066;SDS011;68470;50.224;14.348;2023-03-16T05:29:28;13.40;;;6.32;;
79066;SDS011;68470;50.224;14.348;2023-03-16T05:31:55;11.23;;;4.90;;
79066;SDS011;68470;50.224;14.348;2023-03-16T05:34:22;9.35;;;5.25;;
79066;SDS011;68470;50.224;14.348;2023-03-16T05:36:48;12.05;;;5.45;;
79066;SDS011;68470;50.224;14.348;2023-03-16T05:39:14;7.75;;;4.28;;
79066;SDS011;68470;50.224;14.348;2023-03-16T05:41:40;7.57;;;4.45;;
79066;SDS011;68470;50.224;14.348;2023-03-16T05:44:06;7.88;;;5.32;;
79066;SDS011;68470;50.224;14.348;2023-03-16T05:46:33;16.90;;;8.07;;
79066;SDS011;68470;50.224;14.348;2023-03-16T05:48:59;12.98;;;6.18;;
79066;SDS011;68470;50.224;14.348;2023-03-16T05:51:25;11.13;;;5.70;;
79066;SDS011;68470;50.224;14.348;2023-03-16T05:53:51;12.13;;;6.00;;
79066;SDS011;68470;50.224;14.348;2023-03-16T05:56:24;10.85;;;5.93;;
79066;SDS011;68470;50.224;14.348;2023-03-16T05:58:51;14.27;;;8.13;;
79066;SDS011;68470;50.224;14.348;2023-03-16T06:01:19;16.30;;;8.15;;
79066;SDS011;68470;50.224;14.348;2023-03-16T06:03:46;13.82;;;8.80;;
79066;SDS011;68470;50.224;14.348;2023-03-16T06:06:16;15.48;;;8.23;;
79066;SDS011;68470;50.224;14.348;2023-03-16T06:08:43;19.35;;;9.77;;
79066;SDS011;68470;50.224;14.348;2023-03-16T06:11:09;11.40;;;6.57;;
79066;SDS011;68470;50.224;14.348;2023-03-16T06:13:37;12.75;;;6.43;;
79066;SDS011;68470;50.224;14.348;2023-03-16T06:16:03;11.18;;;6.57;;
79066;SDS011;68470;50.224;14.348;2023-03-16T06:18:31;12.32;;;6.80;;
79066;SDS011;68470;50.224;14.348;2023-03-16T06:20:57;14.98;;;8.38;;
79066;SDS011;68470;50.224;14.348;2023-03-16T06:23:23;17.15;;;8.02;;
79066;SDS011;68470;50.224;14.348;2023-03-16T06:25:50;12.82;;;6.95;;
79066;SDS011;68470;50.224;14.348;2023-03-16T06:28:20;13.48;;;7.53;;
79066;SDS011;68470;50.224;14.348;2023-03-16T06:30:47;13.35;;;7.35;;
79066;SDS011;68470;50.224;14.348;2023-03-16T06:33:13;12.85;;;6.75;;
79066;SDS011;68470;50.224;14.348;2023-03-16T06:35:39;13.50;;;7.45;;
79066;SDS011;68470;50.224;14.348;2023-03-16T06:38:05;11.63;;;7.05;;
79066;SDS011;68470;50.224;14.348;2023-03-16T06:40:30;18.30;;;9.60;;
79066;SDS011;68470;50.224;14.348;2023-03-16T06:42:56;10.68;;;6.20;;
79066;SDS011;68470;50.224;14.348;2023-03-16T06:45:22;9.77;;;6.22;;
79066;SDS011;68470;50.224;14.348;2023-03-16T06:47:50;13.45;;;6.93;;
79066;SDS011;68470;50.224;14.348;2023-03-16T06:50:15;11.20;;;6.82;;
79066;SDS011;68470;50.224;14.348;2023-03-16T06:52:41;12.55;;;8.02;;
79066;SDS011;68470;50.224;14.348;2023-03-16T06:55:07;15.27;;;9.30;;
79066;SDS011;68470;50.224;14.348;2023-03-16T06:57:34;11.18;;;7.25;;
79066;SDS011;68470;50.224;14.348;2023-03-16T06:59:59;9.93;;;6.13;;
79066;SDS011;68470;50.224;14.348;2023-03-16T07:02:28;10.43;;;6.95;;
79066;SDS011;68470;50.224;14.348;2023-03-16T07:04:53;12.55;;;7.70;;
79066;SDS011;68470;50.224;14.348;2023-03-16T07:07:20;12.23;;;6.43;;
79066;SDS011;68470;50.224;14.348;2023-03-16T07:09:46;11.15;;;6.53;;
79066;SDS011;68470;50.224;14.348;2023-03-16T07:12:12;13.73;;;8.18;;
79066;SDS011;68470;50.224;14.348;2023-03-16T07:14:38;12.35;;;6.80;;
79066;SDS011;68470;50.224;14.348;2023-03-16T07:17:04;11.27;;;6.38;;
79066;SDS011;68470;50.224;14.348;2023-03-16T07:19:30;10.57;;;6.85;;
79066;SDS011;68470;50.224;14.348;2023-03-16T07:21:56;11.82;;;6.38;;
79066;SDS011;68470;50.224;14.348;2023-03-16T07:24:22;11.38;;;6.63;;
79066;SDS011;68470;50.224;14.348;2023-03-16T07:26:48;10.40;;;6.32;;
79066;SDS011;68470;50.224;14.348;2023-03-16T07:29:14;10.07;;;6.88;;
79066;SDS011;68470;50.224;14.348;2023-03-16T07:31:41;9.30;;;6.82;;
79066;SDS011;68470;50.224;14.348;2023-03-16T07:34:07;13.13;;;7.82;;
79066;SDS011;68470;50.224;14.348;2023-03-16T07:36:33;10.18;;;6.50;;
79066;SDS011;68470;50.224;14.348;2023-03-16T07:38:59;9.65;;;7.47;;
79066;SDS011;68470;50.224;14.348;2023-03-16T07:41:25;11.57;;;6.78;;
79066;SDS011;68470;50.224;14.348;2023-03-16T07:43:51;11.48;;;7.28;;
79066;SDS011;68470;50.224;14.348;2023-03-16T07:46:18;13.20;;;8.00;;
79066;SDS011;68470;50.224;14.348;2023-03-16T07:48:44;15.43;;;7.93;;
79066;SDS011;68470;50.224;14.348;2023-03-16T07:51:11;11.07;;;7.68;;
79066;SDS011;68470;50.224;14.348;2023-03-16T07:53:38;11.52;;;7.60;;
79066;SDS011;68470;50.224;14.348;2023-03-16T07:56:04;11.75;;;7.28;;
79066;SDS011;68470;50.224;14.348;2023-03-16T07:58:30;12.30;;;7.60;;
79066;SDS011;68470;50.224;14.348;2023-03-16T08:00:57;11.82;;;8.10;;
79066;SDS011;68470;50.224;14.348;2023-03-16T08:03:27;14.48;;;10.05;;
79066;SDS011;68470;50.224;14.348;2023-03-16T08:05:54;14.18;;;9.20;;
79066;SDS011;68470;50.224;14.348;2023-03-16T08:08:20;15.13;;;8.13;;
79066;SDS011;68470;50.224;14.348;2023-03-16T08:10:47;15.45;;;8.35;;
79066;SDS011;68470;50.224;14.348;2023-03-16T08:13:16;14.88;;;8.05;;
79066;SDS011;68470;50.224;14.348;2023-03-16T08:15:46;14.73;;;8.52;;
79066;SDS011;68470;50.224;14.348;2023-03-16T08:18:13;14.25;;;8.43;;
79066;SDS011;68470;50.224;14.348;2023-03-16T08:20:39;17.05;;;9.30;;
79066;SDS011;68470;50.224;14.348;2023-03-16T08:23:06;12.65;;;9.05;;
79066;SDS011;68470;50.224;14.348;2023-03-16T08:25:32;16.45;;;9.50;;
79066;SDS011;68470;50.224;14.348;2023-03-16T08:27:58;13.80;;;8.95;;
79066;SDS011;68470;50.224;14.348;2023-03-16T08:30:24;16.20;;;9.18;;
79066;SDS011;68470;50.224;14.348;2023-03-16T08:32:51;12.75;;;9.30;;
79066;SDS011;68470;50.224;14.348;2023-03-16T08:35:17;14.27;;;8.90;;
79066;SDS011;68470;50.224;14.348;2023-03-16T08:37:43;11.30;;;7.05;;
79066;SDS011;68470;50.224;14.348;2023-03-16T08:40:11;12.98;;;8.00;;
79066;SDS011;68470;50.224;14.348;2023-03-16T08:42:40;11.75;;;7.68;;
79066;SDS011;68470;50.224;14.348;2023-03-16T08:45:06;10.70;;;6.35;;
79066;SDS011;68470;50.224;14.348;2023-03-16T08:47:34;11.57;;;7.32;;
79066;SDS011;68470;50.224;14.348;2023-03-16T08:50:02;12.50;;;7.78;;
79066;SDS011;68470;50.224;14.348;2023-03-16T08:52:30;10.35;;;6.70;;
79066;SDS011;68470;50.224;14.348;2023-03-16T08:54:58;12.90;;;7.35;;
79066;SDS011;68470;50.224;14.348;2023-03-16T08:57:25;14.57;;;7.47;;
79066;SDS011;68470;50.224;14.348;2023-03-16T08:59:51;10.85;;;6.75;;
79066;SDS011;68470;50.224;14.348;2023-03-16T09:02:17;8.63;;;6.75;;
79066;SDS011;68470;50.224;14.348;2023-03-16T09:04:43;10.20;;;5.90;;
79066;SDS011;68470;50.224;14.348;2023-03-16T09:07:10;11.35;;;6.53;;
79066;SDS011;68470;50.224;14.348;2023-03-16T09:09:37;9.95;;;6.38;;
79066;SDS011;68470;50.224;14.348;2023-03-16T09:12:04;8.90;;;5.13;;
79066;SDS011;68470;50.224;14.348;2023-03-16T09:14:30;8.07;;;4.90;;
79066;SDS011;68470;50.224;14.348;2023-03-16T09:16:56;11.73;;;6.45;;
79066;SDS011;68470;50.224;14.348;2023-03-16T09:19:23;10.20;;;6.22;;
79066;SDS011;68470;50.224;14.348;2023-03-16T09:21:49;9.95;;;6.15;;
79066;SDS011;68470;50.224;14.348;2023-03-16T09:24:16;15.02;;;7.28;;
79066;SDS011;68470;50.224;14.348;2023-03-16T09:26:41;10.43;;;5.90;;
79066;SDS011;68470;50.224;14.348;2023-03-16T09:29:08;11.55;;;5.72;;
79066;SDS011;68470;50.224;14.348;2023-03-16T09:31:34;10.93;;;6.18;;
79066;SDS011;68470;50.224;14.348;2023-03-16T09:34:00;10.30;;;5.40;;
79066;SDS011;68470;50.224;14.348;2023-03-16T09:36:27;13.30;;;7.40;;
79066;SDS011;68470;50.224;14.348;2023-03-16T09:38:53;11.15;;;7.07;;
79066;SDS011;68470;50.224;14.348;2023-03-16T09:41:38;9.23;;;4.90;;
79066;SDS011;68470;50.224;14.348;2023-03-16T09:47:06;9.93;;;5.72;;
79066;SDS011;68470;50.224;14.348;2023-03-16T09:49:48;9.40;;;5.07;;
79066;SDS011;68470;50.224;14.348;2023-03-16T09:52:31;5.63;;;4.00;;
79066;SDS011;68470;50.224;14.348;2023-03-16T09:55:05;6.53;;;3.10;;
79066;SDS011;68470;50.224;14.348;2023-03-16T09:57:44;7.85;;;3.97;;
79066;SDS011;68470;50.224;14.348;2023-03-16T10:00:21;6.82;;;3.20;;
79066;SDS011;68470;50.224;14.348;2023-03-16T10:02:57;6.13;;;3.22;;
79066;SDS011;68470;50.224;14.348;2023-03-16T10:05:47;7.20;;;3.63;;
79066;SDS011;68470;50.224;14.348;2023-03-16T10:08:21;7.45;;;3.70;;
79066;SDS011;68470;50.224;14.348;2023-03-16T10:16:16;6.88;;;3.65;;
79066;SDS011;68470;50.224;14.348;2023-03-16T10:18:44;6.35;;;2.88;;
79066;SDS011;68470;50.224;14.348;2023-03-16T10:21:14;9.50;;;3.65;;
79066;SDS011;68470;50.224;14.348;2023-03-16T10:23:43;6.82;;;3.38;;
79066;SDS011;68470;50.224;14.348;2023-03-16T10:26:21;7.55;;;4.00;;
79066;SDS011;68470;50.224;14.348;2023-03-16T10:28:50;7.13;;;3.70;;
79066;SDS011;68470;50.224;14.348;2023-03-16T10:31:19;7.65;;;3.85;;
79066;SDS011;68470;50.224;14.348;2023-03-16T10:33:47;9.00;;;3.72;;
79066;SDS011;68470;50.224;14.348;2023-03-16T10:36:28;7.72;;;4.00;;
79066;SDS011;68470;50.224;14.348;2023-03-16T10:41:30;9.27;;;4.18;;
79066;SDS011;68470;50.224;14.348;2023-03-16T10:43:59;7.22;;;4.15;;
79066;SDS011;68470;50.224;14.348;2023-03-16T10:46:39;6.60;;;3.92;;
79066;SDS011;68470;50.224;14.348;2023-03-16T10:49:20;8.48;;;4.82;;
79066;SDS011;68470;50.224;14.348;2023-03-16T10:51:55;9.13;;;4.63;;
79066;SDS011;68470;50.224;14.348;2023-03-16T10:54:34;8.82;;;4.90;;
79066;SDS011;68470;50.224;14.348;2023-03-16T10:59:51;6.20;;;3.40;;
79066;SDS011;68470;50.224;14.348;2023-03-16T11:02:20;10.02;;;4.00;;
79066;SDS011;68470;50.224;14.348;2023-03-16T11:04:50;9.85;;;4.45;;
79066;SDS011;68470;50.224;14.348;2023-03-16T11:07:21;9.52;;;5.50;;
79066;SDS011;68470;50.224;14.348;2023-03-16T11:09:52;7.30;;;4.45;;
79066;SDS011;68470;50.224;14.348;2023-03-16T11:14:50;6.90;;;3.63;;
79066;SDS011;68470;50.224;14.348;2023-03-16T11:17:38;8.60;;;5.00;;
79066;SDS011;68470;50.224;14.348;2023-03-16T11:20:17;7.05;;;3.95;;
79066;SDS011;68470;50.224;14.348;2023-03-16T11:22:48;11.32;;;5.88;;
79066;SDS011;68470;50.224;14.348;2023-03-16T11:25:24;11.07;;;4.65;;
79066;SDS011;68470;50.224;14.348;2023-03-16T11:33:09;6.03;;;2.90;;
79066;SDS011;68470;50.224;14.348;2023-03-16T11:38:32;5.72;;;2.90;;
79066;SDS011;68470;50.224;14.348;2023-03-16T11:41:03;7.85;;;4.40;;
79066;SDS011;68470;50.224;14.348;2023-03-16T11:46:13;6.82;;;3.08;;
79066;SDS011;68470;50.224;14.348;2023-03-16T11:48:50;5.72;;;3.22;;
79066;SDS011;68470;50.224;14.348;2023-03-16T11:57:30;5.90;;;3.30;;
79066;SDS011;68470;50.224;14.348;2023-03-16T12:00:02;5.90;;;3.70;;
79066;SDS011;68470;50.224;14.348;2023-03-16T12:06:08;4.72;;;2.83;;
79066;SDS011;68470;50.224;14.348;2023-03-16T12:11:24;7.95;;;3.78;;
79066;SDS011;68470;50.224;14.348;2023-03-16T12:19:03;5.72;;;3.15;;
79066;SDS011;68470;50.224;14.348;2023-03-16T12:21:37;6.47;;;3.65;;
79066;SDS011;68470;50.224;14.348;2023-03-16T12:24:12;7.35;;;3.35;;
79066;SDS011;68470;50.224;14.348;2023-03-16T12:26:41;10.05;;;6.53;;
79066;SDS011;68470;50.224;14.348;2023-03-16T12:29:28;6.13;;;3.53;;
79066;SDS011;68470;50.224;14.348;2023-03-16T12:32:04;10.05;;;6.13;;
79066;SDS011;68470;50.224;14.348;2023-03-16T12:35:02;8.98;;;4.65;;
79066;SDS011;68470;50.224;14.348;2023-03-16T12:44:01;6.32;;;3.58;;
79066;SDS011;68470;50.224;14.348;2023-03-16T12:51:14;9.27;;;5.07;;
79066;SDS011;68470;50.224;14.348;2023-03-16T12:56:33;6.25;;;3.47;;
79066;SDS011;68470;50.224;14.348;2023-03-16T12:59:04;6.10;;;3.25;;
79066;SDS011;68470;50.224;14.348;2023-03-16T13:01:40;6.22;;;2.65;;
79066;SDS011;68470;50.224;14.348;2023-03-16T13:04:14;5.68;;;3.38;;
79066;SDS011;68470;50.224;14.348;2023-03-16T13:06:49;5.75;;;3.75;;
79066;SDS011;68470;50.224;14.348;2023-03-16T13:09:26;6.60;;;2.92;;
79066;SDS011;68470;50.224;14.348;2023-03-16T13:11:56;6.07;;;3.00;;
79066;SDS011;68470;50.224;14.348;2023-03-16T13:14:32;6.18;;;2.88;;
79066;SDS011;68470;50.224;14.348;2023-03-16T13:17:28;6.28;;;4.25;;
79066;SDS011;68470;50.224;14.348;2023-03-16T13:20:00;4.88;;;2.85;;
79066;SDS011;68470;50.224;14.348;2023-03-16T13:22:40;15.13;;;9.15;;
79066;SDS011;68470;50.224;14.348;2023-03-16T13:25:11;6.05;;;3.22;;
79066;SDS011;68470;50.224;14.348;2023-03-16T13:27:38;12.02;;;6.70;;
79066;SDS011;68470;50.224;14.348;2023-03-16T13:30:16;4.43;;;2.60;;
79066;SDS011;68470;50.224;14.348;2023-03-16T13:32:45;5.35;;;2.30;;
79066;SDS011;68470;50.224;14.348;2023-03-16T13:35:13;4.63;;;2.58;;
79066;SDS011;68470;50.224;14.348;2023-03-16T13:37:42;6.28;;;4.72;;
79066;SDS011;68470;50.224;14.348;2023-03-16T13:40:25;5.93;;;2.67;;
79066;SDS011;68470;50.224;14.348;2023-03-16T13:42:52;5.40;;;2.60;;
79066;SDS011;68470;50.224;14.348;2023-03-16T13:45:21;5.00;;;2.50;;
79066;SDS011;68470;50.224;14.348;2023-03-16T13:47:52;6.03;;;3.45;;
79066;SDS011;68470;50.224;14.348;2023-03-16T13:50:19;6.13;;;3.47;;
79066;SDS011;68470;50.224;14.348;2023-03-16T13:55:55;7.97;;;3.30;;
79066;SDS011;68470;50.224;14.348;2023-03-16T13:58:23;5.28;;;2.78;;
79066;SDS011;68470;50.224;14.348;2023-03-16T14:00:54;5.03;;;2.78;;
79066;SDS011;68470;50.224;14.348;2023-03-16T14:03:21;6.18;;;2.22;;
79066;SDS011;68470;50.224;14.348;2023-03-16T14:05:48;7.78;;;2.72;;
79066;SDS011;68470;50.224;14.348;2023-03-16T14:08:15;5.20;;;2.33;;
79066;SDS011;68470;50.224;14.348;2023-03-16T14:10:46;9.30;;;2.72;;
79066;SDS011;68470;50.224;14.348;2023-03-16T14:13:23;4.03;;;2.42;;
79066;SDS011;68470;50.224;14.348;2023-03-16T14:15:53;5.35;;;2.67;;
79066;SDS011;68470;50.224;14.348;2023-03-16T14:18:28;5.65;;;2.30;;
79066;SDS011;68470;50.224;14.348;2023-03-16T14:20:59;7.07;;;3.67;;
79066;SDS011;68470;50.224;14.348;2023-03-16T14:23:43;45.55;;;19.13;;
79066;SDS011;68470;50.224;14.348;2023-03-16T14:26:11;6.03;;;3.28;;
79066;SDS011;68470;50.224;14.348;2023-03-16T14:28:40;6.43;;;2.60;;
79066;SDS011;68470;50.224;14.348;2023-03-16T14:31:19;4.00;;;2.00;;
79066;SDS011;68470;50.224;14.348;2023-03-16T14:33:45;7.93;;;2.42;;
79066;SDS011;68470;50.224;14.348;2023-03-16T14:36:12;6.47;;;2.80;;
79066;SDS011;68470;50.224;14.348;2023-03-16T14:38:40;28.55;;;10.38;;
79066;SDS011;68470;50.224;14.348;2023-03-16T14:43:43;7.45;;;2.80;;
79066;SDS011;68470;50.224;14.348;2023-03-16T14:46:12;11.55;;;5.65;;
79066;SDS011;68470;50.224;14.348;2023-03-16T14:48:43;5.15;;;2.63;;
79066;SDS011;68470;50.224;14.348;2023-03-16T14:51:12;6.70;;;2.95;;
79066;SDS011;68470;50.224;14.348;2023-03-16T14:53:42;9.73;;;4.22;;
79066;SDS011;68470;50.224;14.348;2023-03-16T14:56:11;9.68;;;3.83;;
79066;SDS011;68470;50.224;14.348;2023-03-16T14:58:38;10.07;;;4.75;;
79066;SDS011;68470;50.224;14.348;2023-03-16T15:01:05;8.02;;;3.60;;
79066;SDS011;68470;50.224;14.348;2023-03-16T15:03:32;8.60;;;4.63;;
79066;SDS011;68470;50.224;14.348;2023-03-16T15:06:00;5.07;;;2.70;;
79066;SDS011;68470;50.224;14.348;2023-03-16T15:08:27;11.13;;;4.85;;
79066;SDS011;68470;50.224;14.348;2023-03-16T15:10:56;11.43;;;3.72;;
79066;SDS011;68470;50.224;14.348;2023-03-16T15:13:26;9.13;;;4.32;;
79066;SDS011;68470;50.224;14.348;2023-03-16T15:16:04;6.80;;;2.65;;
79066;SDS011;68470;50.224;14.348;2023-03-16T15:18:32;9.35;;;4.10;;
79066;SDS011;68470;50.224;14.348;2023-03-16T15:20:58;10.98;;;4.38;;
79066;SDS011;68470;50.224;14.348;2023-03-16T15:23:26;8.23;;;3.83;;
79066;SDS011;68470;50.224;14.348;2023-03-16T15:25:53;10.02;;;3.88;;
79066;SDS011;68470;50.224;14.348;2023-03-16T15:28:25;13.15;;;6.13;;
79066;SDS011;68470;50.224;14.348;2023-03-16T15:30:55;11.93;;;3.95;;
79066;SDS011;68470;50.224;14.348;2023-03-16T15:33:23;4.78;;;2.55;;
79066;SDS011;68470;50.224;14.348;2023-03-16T15:35:51;4.85;;;2.15;;
79066;SDS011;68470;50.224;14.348;2023-03-16T15:38:23;6.32;;;3.03;;
79066;SDS011;68470;50.224;14.348;2023-03-16T15:40:52;4.47;;;2.40;;
79066;SDS011;68470;50.224;14.348;2023-03-16T15:43:19;9.38;;;4.00;;
79066;SDS011;68470;50.224;14.348;2023-03-16T15:45:50;7.07;;;3.38;;
79066;SDS011;68470;50.224;14.348;2023-03-16T15:48:19;6.22;;;2.80;;
79066;SDS011;68470;50.224;14.348;2023-03-16T15:50:52;7.65;;;2.85;;
79066;SDS011;68470;50.224;14.348;2023-03-16T15:53:24;12.55;;;5.28;;
79066;SDS011;68470;50.224;14.348;2023-03-16T15:55:54;7.78;;;3.35;;
79066;SDS011;68470;50.224;14.348;2023-03-16T15:58:25;5.93;;;2.58;;
79066;SDS011;68470;50.224;14.348;2023-03-16T16:00:52;3.10;;;1.83;;